createdAt,value
2023-05-10T00:00:26.125Z,10.85
2023-05-10T00:02:57.168Z,10.82
2023-05-10T00:05:28.158Z,16.00
2023-05-10T00:07:59.043Z,10.65
2023-05-10T00:10:29.921Z,8.55
2023-05-10T00:13:03.398Z,9.32
2023-05-10T00:15:35.966Z,9.52
2023-05-10T00:18:07.107Z,13.30
2023-05-10T00:20:38.071Z,16.25
2023-05-10T00:23:08.984Z,11.07
2023-05-10T00:25:39.807Z,10.23
2023-05-10T00:28:14.401Z,6.47
2023-05-10T00:30:45.495Z,9.75
2023-05-10T00:33:16.499Z,7.82
2023-05-10T00:35:47.443Z,8.38
2023-05-10T00:38:20.294Z,9.05
2023-05-10T00:40:51.378Z,11.25
2023-05-10T00:43:32.417Z,12.20
2023-05-10T00:46:03.598Z,9.30
2023-05-10T00:48:34.617Z,9.50
2023-05-10T00:51:06.408Z,15.07
2023-05-10T00:53:39.182Z,14.80
2023-05-10T00:56:10.316Z,10.48
2023-05-10T00:58:44.120Z,8.75
2023-05-10T01:01:16.172Z,8.40
2023-05-10T01:03:48.207Z,12.25
2023-05-10T01:06:20.249Z,10.30
2023-05-10T01:08:51.517Z,9.25
2023-05-10T01:11:22.513Z,9.40
2023-05-10T01:14:00.931Z,7.32
2023-05-10T01:16:33.995Z,11.32
2023-05-10T01:19:05.253Z,13.45
2023-05-10T01:21:47.044Z,10.50
2023-05-10T01:24:47.612Z,11.73
2023-05-10T01:27:56.883Z,12.10
2023-05-10T01:30:49.724Z,11.77
2023-05-10T01:33:26.040Z,12.27
2023-05-10T01:36:03.161Z,19.15
2023-05-10T01:38:40.559Z,14.40
2023-05-10T01:41:19.396Z,9.82
2023-05-10T01:43:58.592Z,10.70
2023-05-10T01:46:33.923Z,10.82
2023-05-10T01:49:12.247Z,22.00
2023-05-10T01:51:49.107Z,10.95
2023-05-10T01:57:00.008Z,13.70
2023-05-10T01:59:34.802Z,16.83
2023-05-10T02:02:07.175Z,9.57
2023-05-10T02:04:42.830Z,12.55
2023-05-10T02:07:15.835Z,12.50
2023-05-10T02:09:50.737Z,9.48
2023-05-10T02:12:23.676Z,14.75
2023-05-10T02:14:56.870Z,9.48
2023-05-10T02:17:56.093Z,13.38
2023-05-10T02:20:30.639Z,13.45
2023-05-10T02:23:03.144Z,16.40
2023-05-10T02:25:35.801Z,13.68
2023-05-10T02:28:09.912Z,18.20
2023-05-10T02:30:41.405Z,12.25
2023-05-10T02:33:12.777Z,12.00
2023-05-10T02:35:46.934Z,11.05
2023-05-10T02:38:19.091Z,10.30
2023-05-10T02:40:50.942Z,18.75
2023-05-10T02:43:22.814Z,9.43
2023-05-10T02:45:54.145Z,14.40
2023-05-10T02:48:25.033Z,8.80
2023-05-10T02:51:00.785Z,18.15
2023-05-10T02:53:36.127Z,11.20
2023-05-10T02:56:16.141Z,7.15
2023-05-10T02:58:47.481Z,13.00
2023-05-10T03:01:18.360Z,11.68
2023-05-10T03:03:49.216Z,11.13
2023-05-10T03:06:22.796Z,13.18
2023-05-10T03:08:54.019Z,13.18
2023-05-10T03:11:41.599Z,10.00
2023-05-10T03:14:23.287Z,13.93
2023-05-10T03:17:02.715Z,10.18
2023-05-10T03:19:40.812Z,11.85
2023-05-10T03:22:17.247Z,10.98
2023-05-10T03:24:49.531Z,15.20
2023-05-10T03:27:21.708Z,16.70
2023-05-10T03:29:53.152Z,15.30
2023-05-10T03:32:24.206Z,15.82
2023-05-10T03:34:55.078Z,11.52
2023-05-10T03:37:28.692Z,16.40
2023-05-10T03:39:59.806Z,16.42
2023-05-10T03:42:30.840Z,17.48
2023-05-10T03:45:01.926Z,18.42
2023-05-10T03:47:33.657Z,13.40
2023-05-10T03:50:04.547Z,11.85
2023-05-10T03:52:40.277Z,17.15
2023-05-10T03:55:12.070Z,21.45
2023-05-10T03:57:42.913Z,16.88
2023-05-10T04:00:16.434Z,15.70
2023-05-10T04:02:47.453Z,14.73
2023-05-10T04:05:23.241Z,20.15
2023-05-10T04:07:58.940Z,17.77
2023-05-10T04:10:29.739Z,22.35
2023-05-10T04:13:01.190Z,9.68
2023-05-10T04:15:32.202Z,19.23
2023-05-10T04:18:03.116Z,20.80
2023-05-10T04:20:34.101Z,14.95
2023-05-10T04:23:07.676Z,15.88
2023-05-10T04:25:39.178Z,14.45
2023-05-10T04:28:10.036Z,14.35
2023-05-10T04:30:41.773Z,13.73
2023-05-10T04:33:12.626Z,16.00
2023-05-10T04:35:43.487Z,12.48
2023-05-10T04:38:16.929Z,16.77
2023-05-10T04:40:47.732Z,20.35
2023-05-10T04:43:18.579Z,16.33
2023-05-10T04:45:49.582Z,15.27
2023-05-10T04:48:20.592Z,21.02
2023-05-10T04:50:51.459Z,16.15
2023-05-10T04:53:25.094Z,18.20
2023-05-10T04:55:56.019Z,12.45
2023-05-10T04:58:27.363Z,19.23
2023-05-10T05:00:58.193Z,17.75
2023-05-10T05:03:29.191Z,18.23
2023-05-10T05:06:00.161Z,9.43
2023-05-10T05:08:33.695Z,9.65
2023-05-10T05:11:04.782Z,14.75
2023-05-10T05:13:35.737Z,13.40
2023-05-10T05:16:06.945Z,11.40
2023-05-10T05:18:38.007Z,16.40
2023-05-10T05:21:18.385Z,13.82
2023-05-10T05:23:51.922Z,14.02
2023-05-10T05:26:23.064Z,18.73
2023-05-10T05:28:55.777Z,8.48
2023-05-10T05:31:27.482Z,15.95
2023-05-10T05:33:58.345Z,18.95
2023-05-10T05:36:29.126Z,16.73
2023-05-10T05:39:02.568Z,13.57
2023-05-10T05:41:33.807Z,13.60
2023-05-10T05:44:04.710Z,11.43
2023-05-10T05:46:36.098Z,6.45
2023-05-10T05:49:07.219Z,8.05
2023-05-10T05:51:38.835Z,13.13
2023-05-10T05:54:12.360Z,8.45
2023-05-10T05:56:43.287Z,10.98
2023-05-10T05:59:14.186Z,14.00
2023-05-10T06:01:45.066Z,16.85
2023-05-10T06:04:15.967Z,11.32
2023-05-10T06:06:47.222Z,17.08
2023-05-10T06:09:20.830Z,13.73
2023-05-10T06:11:51.911Z,12.20
2023-05-10T06:14:25.151Z,17.25
2023-05-10T06:16:56.118Z,10.15
2023-05-10T06:19:27.663Z,10.55
2023-05-10T06:21:58.854Z,13.80
2023-05-10T06:24:33.670Z,10.25
2023-05-10T06:27:05.749Z,13.30
2023-05-10T06:29:36.740Z,16.52
2023-05-10T06:32:07.885Z,13.70
2023-05-10T06:34:38.762Z,19.70
2023-05-10T06:37:09.677Z,18.40
2023-05-10T06:39:43.053Z,13.52
2023-05-10T06:42:13.876Z,12.30
2023-05-10T06:44:44.873Z,12.30
2023-05-10T06:47:15.764Z,19.98
2023-05-10T06:49:46.826Z,10.98
2023-05-10T06:52:17.858Z,14.00
2023-05-10T06:54:51.406Z,14.30
2023-05-10T06:57:31.358Z,16.02
2023-05-10T07:00:05.352Z,14.05
2023-05-10T07:02:36.663Z,11.77
2023-05-10T07:05:08.017Z,16.63
2023-05-10T07:07:39.063Z,15.90
2023-05-10T07:10:13.856Z,15.70
2023-05-10T07:12:44.856Z,10.82
2023-05-10T07:15:17.561Z,14.50
2023-05-10T07:17:48.679Z,14.25
2023-05-10T07:20:19.860Z,13.00
2023-05-10T07:22:50.774Z,11.43
2023-05-10T07:25:24.321Z,13.73
2023-05-10T07:27:55.405Z,10.68
2023-05-10T07:30:26.555Z,11.60
2023-05-10T07:32:57.891Z,13.50
2023-05-10T07:35:28.874Z,12.02
2023-05-10T07:37:59.949Z,10.57
2023-05-10T07:40:34.479Z,10.38
2023-05-10T07:43:05.774Z,14.45
2023-05-10T07:45:37.529Z,12.55
2023-05-10T07:48:08.612Z,12.85
2023-05-10T07:50:39.687Z,17.50
2023-05-10T07:53:10.686Z,16.02
2023-05-10T07:55:44.428Z,13.60
2023-05-10T07:58:15.647Z,14.77
2023-05-10T08:00:46.547Z,12.90
2023-05-10T08:03:17.535Z,17.65
2023-05-10T08:05:48.503Z,12.25
2023-05-10T08:08:19.395Z,17.50
2023-05-10T08:10:52.969Z,14.82
2023-05-10T08:13:24.316Z,12.20
2023-05-10T08:15:56.013Z,10.93
2023-05-10T08:18:27.295Z,18.63
2023-05-10T08:20:59.191Z,13.30
2023-05-10T08:23:31.498Z,12.63
2023-05-10T08:26:05.608Z,14.15
2023-05-10T08:28:37.133Z,15.88
2023-05-10T08:31:09.604Z,11.63
2023-05-10T08:33:42.168Z,10.60
2023-05-10T08:36:15.510Z,9.60
2023-05-10T08:38:46.631Z,13.85
2023-05-10T08:41:20.408Z,9.38
2023-05-10T08:43:52.290Z,9.88
2023-05-10T08:46:24.903Z,12.40
2023-05-10T08:48:58.455Z,9.70
2023-05-10T08:51:31.615Z,12.02
2023-05-10T08:54:12.933Z,10.10
2023-05-10T08:56:49.714Z,7.15
2023-05-10T08:59:20.974Z,10.50
2023-05-10T09:01:54.899Z,9.50
2023-05-10T09:04:25.982Z,7.72
2023-05-10T09:06:57.105Z,8.32
2023-05-10T09:09:29.535Z,14.15
2023-05-10T09:12:03.065Z,12.63
2023-05-10T09:14:34.929Z,8.93
2023-05-10T09:17:06.141Z,12.60
2023-05-10T09:19:37.006Z,7.45
2023-05-10T09:22:08.198Z,7.45
2023-05-10T09:24:44.294Z,9.82
2023-05-10T09:27:19.615Z,8.93
2023-05-10T09:29:54.599Z,15.65
2023-05-10T09:32:25.669Z,6.20
2023-05-10T09:34:56.552Z,7.78
2023-05-10T09:37:34.213Z,9.90
2023-05-10T09:40:05.927Z,9.15
2023-05-10T09:42:39.873Z,9.13
2023-05-10T09:45:12.069Z,9.48
2023-05-10T09:47:43.135Z,5.85
2023-05-10T09:50:14.722Z,11.10
2023-05-10T09:52:56.173Z,10.00
2023-05-10T09:55:29.525Z,10.15
2023-05-10T09:58:11.060Z,11.82
2023-05-10T10:00:44.711Z,8.73
2023-05-10T10:03:22.464Z,6.25
2023-05-10T10:05:57.422Z,7.82
2023-05-10T10:08:29.338Z,8.88
2023-05-10T10:11:00.662Z,6.63
2023-05-10T10:13:34.767Z,8.20
2023-05-10T10:16:07.489Z,4.68
2023-05-10T10:18:42.207Z,6.50
2023-05-10T10:21:13.229Z,10.27
2023-05-10T10:23:45.161Z,7.15
2023-05-10T10:26:19.067Z,8.95
2023-05-10T10:29:00.797Z,10.80
2023-05-10T10:31:40.718Z,8.73
2023-05-10T10:34:14.350Z,4.68
2023-05-10T10:36:46.554Z,6.18
2023-05-10T10:39:18.918Z,6.25
2023-05-10T10:41:55.141Z,10.20
2023-05-10T10:44:43.835Z,8.60
2023-05-10T10:47:34.596Z,6.78
2023-05-10T10:50:12.239Z,8.60
2023-05-10T10:52:44.419Z,6.35
2023-05-10T10:55:19.597Z,5.28
2023-05-10T10:57:53.750Z,8.25
2023-05-10T11:00:34.811Z,4.22
2023-05-10T11:03:10.528Z,6.30
2023-05-10T11:05:48.972Z,5.38
2023-05-10T11:08:31.189Z,5.20
2023-05-10T11:11:12.008Z,7.03
2023-05-10T11:13:44.568Z,7.95
2023-05-10T11:16:23.093Z,5.60
2023-05-10T11:18:59.004Z,10.00
2023-05-10T11:21:30.137Z,7.47
2023-05-10T11:24:02.523Z,6.10
2023-05-10T11:26:37.927Z,5.88
2023-05-10T11:29:09.341Z,3.08
2023-05-10T11:31:48.110Z,4.55
2023-05-10T11:34:28.559Z,6.97
2023-05-10T11:37:00.722Z,4.55
2023-05-10T11:39:32.120Z,5.53
2023-05-10T11:42:03.456Z,6.28
2023-05-10T11:44:35.154Z,5.65
2023-05-10T11:47:09.898Z,2.75
2023-05-10T11:49:41.060Z,4.43
2023-05-10T11:52:13.369Z,4.60
2023-05-10T11:54:50.713Z,5.55
2023-05-10T11:57:23.087Z,4.55
2023-05-10T11:59:58.759Z,4.05
2023-05-10T12:02:33.113Z,3.92
2023-05-10T12:05:05.428Z,2.45
2023-05-10T12:07:37.042Z,3.10
2023-05-10T12:10:11.055Z,3.45
2023-05-10T12:12:43.257Z,4.38
2023-05-10T12:15:22.153Z,4.25
2023-05-10T12:17:56.095Z,3.88
2023-05-10T12:20:28.470Z,1.40
2023-05-10T12:23:03.299Z,3.65
2023-05-10T12:25:37.066Z,3.17
2023-05-10T12:28:09.417Z,4.00
2023-05-10T12:30:40.895Z,2.30
2023-05-10T12:33:19.326Z,1.92
2023-05-10T12:35:51.801Z,3.10
2023-05-10T12:38:33.591Z,1.83
2023-05-10T12:41:06.315Z,2.53
2023-05-10T12:43:38.162Z,2.88
2023-05-10T12:46:12.729Z,2.03
2023-05-10T12:48:48.141Z,2.22
2023-05-10T12:51:20.919Z,3.45
2023-05-10T12:53:51.874Z,3.78
2023-05-10T12:56:22.796Z,4.93
2023-05-10T12:58:53.896Z,4.97
2023-05-10T13:01:24.757Z,2.28
2023-05-10T13:03:58.235Z,4.75
2023-05-10T13:06:29.228Z,5.07
2023-05-10T13:09:00.350Z,3.60
2023-05-10T13:11:31.574Z,1.83
2023-05-10T13:14:04.512Z,2.63
2023-05-10T13:16:35.623Z,4.00
2023-05-10T13:19:09.226Z,4.40
2023-05-10T13:21:42.185Z,2.17
2023-05-10T13:24:15.072Z,3.92
2023-05-10T13:26:46.136Z,1.77
2023-05-10T13:29:19.278Z,4.00
2023-05-10T13:31:50.672Z,5.47
2023-05-10T13:34:25.519Z,4.63
2023-05-10T13:36:57.675Z,9.02
2023-05-10T13:39:28.674Z,5.65
2023-05-10T13:41:59.546Z,3.05
2023-05-10T13:44:30.609Z,5.60
2023-05-10T13:47:01.921Z,3.30
2023-05-10T13:49:36.168Z,2.88
2023-05-10T13:52:08.165Z,4.18
2023-05-10T13:54:39.569Z,3.85
2023-05-10T13:57:10.740Z,5.15
2023-05-10T14:00:07.745Z,3.80
2023-05-10T14:02:50.639Z,2.78
2023-05-10T14:05:26.204Z,3.80
2023-05-10T14:07:57.734Z,6.43
2023-05-10T14:10:28.818Z,9.80
2023-05-10T14:12:59.636Z,4.13
2023-05-10T14:15:30.597Z,2.83
2023-05-10T14:18:01.866Z,4.50
2023-05-10T14:20:35.515Z,13.93
2023-05-10T14:23:06.517Z,9.93
2023-05-10T14:25:37.665Z,4.90
2023-05-10T14:28:13.610Z,6.97
2023-05-10T14:30:45.375Z,7.22
2023-05-10T14:33:41.054Z,5.68
2023-05-10T14:36:15.735Z,7.25
2023-05-10T14:38:46.731Z,5.57
2023-05-10T14:44:29.974Z,6.40
2023-05-10T14:47:14.492Z,5.50
2023-05-10T14:49:46.097Z,6.20
2023-05-10T14:52:23.587Z,7.35
2023-05-10T14:57:53.593Z,8.68
2023-05-10T15:00:26.090Z,6.03
2023-05-10T15:02:57.437Z,8.07
2023-05-10T15:05:29.262Z,7.53
2023-05-10T15:08:06.091Z,7.72
2023-05-10T15:10:38.091Z,5.32
2023-05-10T15:13:09.354Z,6.65
2023-05-10T15:15:40.467Z,4.50
2023-05-10T15:18:13.777Z,3.92
2023-05-10T15:20:45.353Z,15.35
2023-05-10T15:23:19.079Z,5.35
2023-05-10T15:25:51.050Z,7.30
2023-05-10T15:28:21.991Z,8.07
2023-05-10T15:30:53.027Z,5.32
2023-05-10T15:37:25.816Z,14.40
2023-05-10T15:40:05.025Z,8.65
2023-05-10T15:42:37.945Z,10.82
2023-05-10T15:45:10.147Z,6.13
2023-05-10T15:47:41.229Z,6.70
2023-05-10T15:50:13.225Z,8.23
2023-05-10T15:52:44.586Z,8.07
2023-05-10T15:55:18.633Z,6.45
2023-05-10T15:57:50.786Z,9.90
2023-05-10T16:00:22.540Z,6.93
2023-05-10T16:02:56.528Z,5.90
2023-05-10T16:05:27.897Z,8.75
2023-05-10T16:07:59.303Z,7.72
2023-05-10T16:10:36.254Z,10.45
2023-05-10T16:13:07.322Z,7.10
2023-05-10T16:16:06.445Z,6.35
2023-05-10T16:18:51.841Z,6.32
2023-05-10T16:21:23.330Z,7.22
2023-05-10T16:23:54.284Z,6.22
2023-05-10T16:26:28.207Z,6.10
2023-05-10T16:28:59.211Z,3.83
2023-05-10T16:31:30.229Z,8.38
2023-05-10T16:34:01.391Z,6.53
2023-05-10T16:36:33.915Z,5.18
2023-05-10T16:39:05.123Z,3.03
2023-05-10T16:41:39.695Z,10.75
2023-05-10T16:44:10.560Z,8.43
2023-05-10T16:46:42.003Z,8.15
2023-05-10T16:49:13.499Z,8.68
2023-05-10T16:51:44.687Z,5.00
2023-05-10T16:54:17.574Z,8.93
2023-05-10T16:56:51.224Z,8.63
2023-05-10T16:59:22.088Z,8.32
2023-05-10T17:01:53.581Z,7.55
2023-05-10T17:04:25.097Z,5.90
2023-05-10T17:06:56.132Z,5.45
2023-05-10T17:09:27.169Z,7.85
2023-05-10T17:12:00.792Z,9.48
2023-05-10T17:14:32.152Z,7.75
2023-05-10T17:17:04.029Z,6.57
2023-05-10T17:19:35.832Z,6.60
2023-05-10T17:22:07.199Z,8.38
2023-05-10T17:24:38.626Z,8.98
2023-05-10T17:27:12.668Z,8.38
2023-05-10T17:29:43.612Z,10.35
2023-05-10T17:32:15.232Z,10.32
2023-05-10T17:34:48.070Z,11.48
2023-05-10T17:37:19.682Z,11.02
2023-05-10T17:39:54.783Z,8.40
2023-05-10T17:42:29.472Z,8.80
2023-05-10T17:45:01.962Z,5.88
2023-05-10T17:47:35.328Z,9.27
2023-05-10T17:50:08.716Z,5.25
2023-05-10T17:52:40.652Z,7.80
2023-05-10T17:55:12.940Z,7.65
2023-05-10T17:57:51.160Z,6.75
2023-05-10T18:00:23.156Z,7.10
2023-05-10T18:02:54.165Z,9.48
2023-05-10T18:05:25.466Z,8.15
2023-05-10T18:07:56.831Z,6.03
2023-05-10T18:10:28.115Z,7.68
2023-05-10T18:13:02.812Z,5.72
2023-05-10T18:15:33.895Z,5.93
2023-05-10T18:18:05.725Z,3.65
2023-05-10T18:20:36.686Z,7.10
2023-05-10T18:23:07.661Z,6.85
2023-05-10T18:25:38.562Z,2.95
2023-05-10T18:28:12.386Z,5.57
2023-05-10T18:30:43.875Z,11.77
2023-05-10T18:33:14.884Z,7.22
2023-05-10T18:35:46.044Z,8.73
2023-05-10T18:38:17.074Z,8.23
2023-05-10T18:40:48.044Z,4.97
2023-05-10T18:43:21.496Z,6.75
2023-05-10T18:45:52.853Z,5.78
2023-05-10T18:48:23.893Z,7.03
2023-05-10T18:50:54.795Z,5.28
2023-05-10T18:53:25.819Z,9.65
2023-05-10T18:56:00.966Z,6.50
2023-05-10T18:58:36.055Z,7.85
2023-05-10T19:01:07.320Z,6.13
2023-05-10T19:03:39.326Z,6.70
2023-05-10T19:06:10.622Z,5.63
2023-05-10T19:08:41.507Z,6.60
2023-05-10T19:11:26.239Z,3.83
2023-05-10T19:14:00.149Z,10.30
2023-05-10T19:16:31.341Z,7.43
2023-05-10T19:19:02.520Z,7.43
2023-05-10T19:21:38.158Z,6.32
2023-05-10T19:24:10.715Z,6.78
2023-05-10T19:26:41.933Z,10.20
2023-05-10T19:29:15.467Z,6.07
2023-05-10T19:31:47.254Z,6.28
2023-05-10T19:34:18.687Z,7.28
2023-05-10T19:36:52.539Z,4.57
2023-05-10T19:39:30.002Z,4.70
2023-05-10T19:42:03.318Z,4.47
2023-05-10T19:44:37.000Z,3.38
2023-05-10T19:47:09.339Z,6.35
2023-05-10T19:49:40.805Z,5.18
2023-05-10T19:52:12.677Z,8.05
2023-05-10T19:54:45.179Z,3.60
2023-05-10T19:57:16.411Z,6.65
2023-05-10T19:59:49.912Z,5.90
2023-05-10T20:02:20.978Z,9.25
2023-05-10T20:04:51.978Z,4.55
2023-05-10T20:07:23.065Z,2.88
2023-05-10T20:09:53.907Z,4.50
2023-05-10T20:12:24.753Z,5.32
2023-05-10T20:14:58.314Z,4.15
2023-05-10T20:17:29.346Z,9.05
2023-05-10T20:20:01.860Z,3.85
2023-05-10T20:22:33.002Z,7.28
2023-05-10T20:25:03.864Z,4.07
2023-05-10T20:27:34.660Z,7.13
2023-05-10T20:30:12.662Z,7.18
2023-05-10T20:32:43.972Z,9.52
2023-05-10T20:35:15.536Z,4.60
2023-05-10T20:37:48.650Z,5.70
2023-05-10T20:40:19.847Z,4.75
2023-05-10T20:42:54.229Z,8.07
2023-05-10T20:45:27.876Z,3.88
2023-05-10T20:47:58.871Z,3.90
2023-05-10T20:50:29.937Z,3.22
2023-05-10T20:53:01.042Z,3.00
2023-05-10T20:55:32.092Z,5.25
2023-05-10T20:58:04.777Z,5.40
2023-05-10T21:00:38.763Z,8.00
2023-05-10T21:03:09.745Z,5.75
2023-05-10T21:05:40.618Z,6.93
2023-05-10T21:08:11.477Z,6.68
2023-05-10T21:10:42.323Z,3.65
2023-05-10T21:13:13.224Z,6.07
2023-05-10T21:15:47.453Z,5.57
2023-05-10T21:18:18.432Z,4.32
2023-05-10T21:20:53.084Z,6.32
2023-05-10T21:23:24.035Z,5.03
2023-05-10T21:25:55.073Z,5.18
2023-05-10T21:28:25.990Z,6.28
2023-05-10T21:30:59.594Z,4.53
2023-05-10T21:33:30.563Z,4.50
2023-05-10T21:36:03.163Z,3.40
2023-05-10T21:38:34.721Z,3.55
2023-05-10T21:41:09.299Z,4.30
2023-05-10T21:43:40.167Z,4.82
2023-05-10T21:46:14.506Z,8.30
2023-05-10T21:48:45.409Z,6.03
2023-05-10T21:51:16.354Z,5.15
2023-05-10T21:53:47.326Z,4.28
2023-05-10T21:56:18.152Z,4.25
2023-05-10T21:58:49.027Z,4.35
2023-05-10T22:01:22.675Z,3.60
2023-05-10T22:03:53.698Z,4.28
2023-05-10T22:06:24.578Z,4.80
2023-05-10T22:08:55.523Z,2.85
2023-05-10T22:11:26.364Z,5.95
2023-05-10T22:13:57.270Z,3.17
2023-05-10T22:16:31.567Z,4.55
2023-05-10T22:19:03.010Z,4.80
2023-05-10T22:21:33.830Z,3.83
2023-05-10T22:24:04.862Z,4.45
2023-05-10T22:26:35.756Z,5.65
2023-05-10T22:29:07.158Z,2.88
2023-05-10T22:31:40.552Z,5.25
2023-05-10T22:34:11.392Z,4.68
2023-05-10T22:36:42.559Z,3.25
2023-05-10T22:39:13.409Z,4.35
2023-05-10T22:41:44.296Z,4.20
2023-05-10T22:44:15.221Z,2.83
2023-05-10T22:46:48.739Z,6.38
2023-05-10T22:49:19.750Z,4.85
2023-05-10T22:51:50.632Z,5.53
2023-05-10T22:54:21.632Z,5.63
2023-05-10T22:56:52.634Z,5.75
2023-05-10T22:59:24.963Z,5.10
2023-05-10T23:01:58.637Z,3.47
2023-05-10T23:04:30.175Z,6.82
2023-05-10T23:07:01.072Z,5.28
2023-05-10T23:09:31.991Z,4.93
2023-05-10T23:12:03.292Z,3.80
2023-05-10T23:14:34.097Z,3.47
2023-05-10T23:17:07.536Z,5.28
2023-05-10T23:19:39.106Z,4.75
2023-05-10T23:22:10.244Z,4.90
2023-05-10T23:24:41.222Z,3.97
2023-05-10T23:27:12.146Z,5.10
2023-05-10T23:29:43.056Z,6.28
2023-05-10T23:32:16.717Z,5.78
2023-05-10T23:34:47.612Z,5.72
2023-05-10T23:37:18.572Z,3.45
2023-05-10T23:39:50.018Z,6.93
2023-05-10T23:42:20.946Z,6.43
2023-05-10T23:44:51.905Z,3.95
2023-05-10T23:47:25.364Z,6.43
2023-05-10T23:49:56.313Z,4.70
2023-05-10T23:52:27.891Z,4.53
2023-05-10T23:54:58.841Z,3.33
2023-05-10T23:57:29.658Z,3.17
